Time;durP1;ratioP1;P1;durP2;ratioP2;P2;SDS_P1;SDS_P2;PMS_P1;PMS_P2;Temp;Humidity;BMP_temperature;BMP_pressure;BME280_temperature;BME280_humidity;BME280_pressure;Samples;Min_cycle;Max_cycle;Signal;HPM_P1;HPM_P2
2022/11/02 00:16:51;;;;;;;2.08;0.90;;;;;;;17.83;65.64;101262.34;4739859;30;20056;-87
2022/11/02 05:43:30;;;;;;;2.53;0.88;;;;;;;17.66;65.41;101508.75;4814724;29;20089;-86
2022/11/02 06:00:04;;;;;;;1.83;0.70;;;;;;;17.65;65.45;101556.47;4743204;30;20055;-86
2022/11/02 06:18:30;;;;;;;1.65;0.70;;;;;;;17.64;65.04;101606.78;4838093;24;20042;-86
2022/11/02 06:21:21;;;;;;;1.40;0.63;;;;;;;17.64;65.18;101610.25;4813987;29;20038;-84
2022/11/02 06:24:24;;;;;;;1.65;0.70;;;;;;;17.65;65.47;101637.16;4813998;29;20022;-86
2022/11/02 06:26:49;;;;;;;11.52;3.03;;;;;;;17.65;65.33;101638.00;4820844;29;20034;-79
2022/11/02 06:29:53;;;;;;;18.65;5.05;;;;;;;17.67;65.57;101640.63;4822414;29;20038;-81
2022/11/02 06:32:58;;;;;;;32.83;6.80;;;;;;;17.67;65.69;101653.63;4828266;29;20379;-82
2022/11/02 06:35:48;;;;;;;25.15;5.53;;;;;;;17.68;65.62;101661.47;4827248;29;20069;-86
2022/11/02 17:11:30;;;;;;;6.15;2.00;;;;;;;18.04;64.68;101756.19;4387965;24;20069;-83
2022/11/02 17:14:20;;;;;;;6.85;2.00;;;;;;;18.04;64.81;101755.34;4824381;29;20121;-84
2022/11/02 17:17:27;;;;;;;5.35;2.00;;;;;;;18.04;64.69;101753.59;4754432;30;20066;-84
2022/11/02 17:20:32;;;;;;;5.05;2.08;;;;;;;18.04;64.75;101755.34;4813470;29;20062;-83
2022/11/02 17:23:31;;;;;;;5.47;1.98;;;;;;;18.04;64.60;101750.13;4808062;29;20069;-84
2022/11/02 17:39:20;;;;;;;3.80;1.60;;;;;;;18.02;64.67;101731.03;4832069;29;20041;-84
2022/11/02 17:45:38;;;;;;;5.30;1.90;;;;;;;18.03;64.58;101727.53;4842298;29;20122;-83
2022/11/02 17:48:23;;;;;;;5.07;1.80;;;;;;;18.01;64.65;101718.88;4825653;29;20053;-80
2022/11/02 17:50:51;;;;;;;4.47;1.77;;;;;;;18.01;64.60;101714.53;4824553;29;20044;-81
2022/11/02 17:53:17;;;;;;;4.10;1.50;;;;;;;18.01;64.28;101711.94;4831450;29;20064;-80
2022/11/02 17:55:47;;;;;;;5.43;1.80;;;;;;;18.00;64.55;101712.78;4839013;29;20042;-82
2022/11/02 17:58:34;;;;;;;5.60;1.60;;;;;;;18.01;64.42;101709.31;4849334;29;20059;-82
2022/11/02 18:01:01;;;;;;;9.07;1.80;;;;;;;18.03;64.53;101712.81;4823780;29;20557;-82
2022/11/02 18:03:29;;;;;;;4.50;1.65;;;;;;;18.02;64.80;101711.03;4838331;29;20030;-82
2022/11/02 18:05:56;;;;;;;6.28;1.70;;;;;;;18.02;64.91;101702.38;4844326;29;20037;-81
2022/11/02 18:11:53;;;;;;;9.20;1.88;;;;;;;18.02;64.83;101689.34;4833668;29;20107;-82
2022/11/02 18:14:21;;;;;;;5.93;1.55;;;;;;;18.02;64.87;101687.59;4809436;29;20128;-82
2022/11/02 18:16:47;;;;;;;4.57;1.42;;;;;;;18.02;64.86;101689.34;4826147;29;20035;-81
2022/11/02 18:19:51;;;;;;;3.88;1.77;;;;;;;18.02;64.93;101682.41;4830909;29;20039;-83
2022/11/02 18:22:26;;;;;;;3.75;1.38;;;;;;;18.03;65.01;101675.44;4832223;29;20049;-82
2022/11/02 18:25:04;;;;;;;4.40;1.48;;;;;;;18.01;65.13;101669.41;4806520;29;20043;-81
2022/11/02 18:27:32;;;;;;;6.22;1.65;;;;;;;18.02;64.94;101668.50;4786631;29;20090;-79
2022/11/02 18:29:59;;;;;;;3.47;1.42;;;;;;;18.02;65.20;101663.31;4837895;29;20078;-83
2022/11/02 18:32:50;;;;;;;3.67;1.42;;;;;;;18.02;65.07;101658.09;4832298;29;20041;-84
2022/11/02 18:36:08;;;;;;;5.30;1.65;;;;;;;18.02;65.04;101661.56;4793043;30;20047;-83
2022/11/02 18:38:57;;;;;;;2.83;1.40;;;;;;;18.01;65.20;101645.97;4768050;30;20036;-83
2022/11/02 18:45:23;;;;;;;4.90;1.23;;;;;;;18.00;65.05;101639.84;4757096;30;20039;-84
2022/11/02 18:48:08;;;;;;;7.20;1.10;;;;;;;18.01;65.18;101628.59;4755719;30;20037;-83
2022/11/02 18:50:58;;;;;;;4.72;1.27;;;;;;;18.00;64.97;101618.16;4756235;30;20040;-83
2022/11/02 18:53:29;;;;;;;4.68;1.30;;;;;;;18.01;65.11;101625.13;4755210;30;20049;-83
2022/11/02 18:56:15;;;;;;;3.88;1.30;;;;;;;18.01;65.20;101620.78;4737495;30;20056;-83
2022/11/02 18:59:06;;;;;;;3.90;1.67;;;;;;;18.01;65.28;101620.78;4721109;30;20033;-82
2022/11/02 19:01:32;;;;;;;4.18;1.17;;;;;;;18.02;64.97;101616.44;4738414;30;20041;-83
2022/11/02 19:03:59;;;;;;;4.07;1.40;;;;;;;18.00;65.26;101611.22;4738736;30;20049;-83
2022/11/02 19:10:19;;;;;;;4.07;1.20;;;;;;;18.02;65.09;101608.63;4765711;30;20066;-83
2022/11/02 19:13:04;;;;;;;1.95;1.05;;;;;;;18.02;65.16;101616.44;4772198;30;20059;-83
2022/11/02 19:15:44;;;;;;;3.77;1.30;;;;;;;18.00;65.08;101608.59;4773170;30;20056;-83
2022/11/02 19:21:34;;;;;;;2.55;1.20;;;;;;;18.00;65.06;101597.31;4767135;30;20519;-83
2022/11/02 19:24:44;;;;;;;4.50;1.33;;;;;;;18.00;65.13;101599.94;4717779;30;20026;-83
2022/11/02 19:27:33;;;;;;;3.83;1.20;;;;;;;18.00;65.11;101592.13;4738742;30;20035;-84
2022/11/02 19:30:12;;;;;;;3.67;1.20;;;;;;;18.00;65.08;101579.09;4739404;30;20032;-84
2022/11/02 19:33:01;;;;;;;2.88;1.30;;;;;;;17.99;65.20;101575.63;4710283;30;20037;-84
2022/11/02 19:35:46;;;;;;;4.88;1.40;;;;;;;17.98;64.97;101565.19;4738812;30;20056;-84
2022/11/02 19:41:56;;;;;;;3.25;1.20;;;;;;;18.00;65.03;101566.06;4739611;30;20028;-83
2022/11/02 19:44:35;;;;;;;2.70;1.10;;;;;;;17.99;64.99;101546.13;4737230;30;20036;-83
2022/11/02 19:47:19;;;;;;;3.50;1.08;;;;;;;18.00;65.02;101553.06;4695074;30;20099;-83
2022/11/02 19:53:27;;;;;;;2.92;1.20;;;;;;;18.00;65.07;101545.25;4739890;30;20044;-82
2022/11/02 19:55:59;;;;;;;2.35;1.02;;;;;;;18.00;64.97;101532.22;4784901;30;20091;-84
2022/11/02 20:02:19;;;;;;;2.80;1.10;;;;;;;17.98;65.20;101536.56;4798638;29;20052;-83
2022/11/02 20:08:20;;;;;;;3.35;1.30;;;;;;;17.99;65.19;101522.69;4846740;29;20043;-84
2022/11/02 20:10:52;;;;;;;3.15;1.30;;;;;;;17.99;64.84;101518.34;4830961;29;20030;-82
2022/11/02 20:13:21;;;;;;;2.50;1.02;;;;;;;17.99;64.92;101512.25;4818692;29;20055;-83
2022/11/02 20:15:54;;;;;;;2.97;1.10;;;;;;;17.98;64.79;101506.16;4794129;30;20027;-82
2022/11/02 20:25:29;;;;;;;4.20;1.08;;;;;;;17.98;64.95;101513.97;4803867;30;20050;-81
2022/11/02 20:28:00;;;;;;;2.10;1.13;;;;;;;17.97;64.81;101509.66;4804640;30;20074;-83
2022/11/02 20:30:25;;;;;;;2.90;1.30;;;;;;;17.97;64.98;101499.25;4804600;30;20062;-82
2022/11/02 20:32:57;;;;;;;2.38;1.13;;;;;;;17.97;64.76;101500.97;4788999;30;20011;-82
2022/11/02 20:35:24;;;;;;;2.58;1.05;;;;;;;17.97;64.72;101504.44;4805167;29;20035;-83
2022/11/02 20:37:50;;;;;;;2.53;0.93;;;;;;;17.96;64.99;101500.09;4805306;30;20027;-83
2022/11/02 20:40:56;;;;;;;2.95;1.23;;;;;;;17.98;64.97;101505.31;4805883;29;20043;-81
2022/11/02 20:43:22;;;;;;;2.88;1.00;;;;;;;17.97;64.84;101501.84;4804671;30;20031;-82
2022/11/02 20:51:56;;;;;;;3.28;1.00;;;;;;;17.97;64.85;101499.25;4803444;30;20065;-82
2022/11/02 20:54:21;;;;;;;2.08;1.10;;;;;;;17.97;65.00;101491.44;4801728;30;20090;-82
2022/11/02 21:00:10;;;;;;;3.55;1.10;;;;;;;17.96;64.77;101494.03;4803277;30;20061;-81
2022/11/02 21:02:35;;;;;;;3.28;1.00;;;;;;;17.95;64.92;101482.75;4802873;30;20118;-82
2022/11/02 21:05:02;;;;;;;2.67;1.10;;;;;;;17.95;64.96;101485.34;4786422;30;20039;-81
2022/11/02 21:07:27;;;;;;;2.88;1.10;;;;;;;17.95;64.74;101469.72;4799346;30;20145;-82
2022/11/02 21:09:53;;;;;;;3.00;1.05;;;;;;;17.95;64.92;101464.50;4785701;30;20047;-84
2022/11/02 21:15:03;;;;;;;2.67;1.30;;;;;;;17.94;64.63;101462.75;4802343;30;20063;-81
2022/11/02 21:17:31;;;;;;;3.65;1.20;;;;;;;17.95;64.89;101468.88;4773865;30;20066;-82
2022/11/02 21:30:12;;;;;;;3.95;1.00;;;;;;;17.96;64.90;101449.75;4804825;30;20026;-83
2022/11/02 21:35:43;;;;;;;2.53;0.93;;;;;;;17.96;64.69;101445.41;4794040;30;20038;-82
2022/11/02 21:41:51;;;;;;;2.63;1.08;;;;;;;17.95;64.71;101435.88;4811144;30;20080;-83
2022/11/02 21:44:54;;;;;;;3.20;1.05;;;;;;;17.96;64.86;101441.94;4828381;29;20057;-83
2022/11/02 21:51:17;;;;;;;2.95;1.17;;;;;;;17.95;64.87;101435.88;4774886;30;19901;-83
2022/11/02 21:54:09;;;;;;;2.70;0.95;;;;;;;17.95;64.88;101432.41;4774421;30;20036;-83
2022/11/02 22:04:00;;;;;;;2.88;1.02;;;;;;;17.96;64.67;101416.75;4745848;30;20122;-80
2022/11/02 22:06:26;;;;;;;2.72;0.93;;;;;;;17.95;64.88;101412.44;4751331;30;20045;-81
2022/11/02 22:08:55;;;;;;;3.50;0.93;;;;;;;17.96;64.91;101415.91;4714955;30;20113;-81
2022/11/02 22:11:23;;;;;;;3.88;1.27;;;;;;;17.96;64.78;101408.09;4757956;29;20143;-80
2022/11/02 22:14:27;;;;;;;3.38;1.35;;;;;;;17.95;64.71;101412.44;4809180;29;20070;-82
2022/11/02 22:16:54;;;;;;;;;;;;;;;17.95;64.99;101403.75;4793696;30;20069;-83
2022/11/02 22:19:20;;;;;;;3.72;1.50;;;;;;;17.95;64.85;101398.56;4784472;30;19988;-81
